Time;durP1;ratioP1;P1;durP2;ratioP2;P2;SDS_P1;SDS_P2;PMS_P1;PMS_P2;Temp;Humidity;BMP_temperature;BMP_pressure;BME280_temperature;BME280_humidity;BME280_pressure;Samples;Min_cycle;Max_cycle;Signal;HPM_P1;HPM_P2
2022/05/30 00:01:53;;;;;;;7.22;3.33;;;10.00;79.40;;;;;;5006492;28;20215;-75
2022/05/30 00:04:19;;;;;;;7.68;3.25;;;10.00;79.50;;;;;;4991570;28;20385;-75
2022/05/30 00:06:45;;;;;;;9.90;3.78;;;10.00;79.30;;;;;;5005489;28;20037;-73
2022/05/30 00:09:13;;;;;;;8.05;3.67;;;10.00;79.40;;;;;;4998560;28;20464;-74
2022/05/30 00:11:40;;;;;;;11.30;3.85;;;10.00;79.30;;;;;;5001329;28;20069;-75
2022/05/30 00:14:06;;;;;;;8.52;3.80;;;10.00;79.10;;;;;;5003071;28;20328;-75
2022/05/30 00:16:33;;;;;;;6.55;3.50;;;10.00;79.10;;;;;;5001401;28;20030;-74
2022/05/30 00:18:59;;;;;;;8.48;3.90;;;9.90;79.10;;;;;;5002081;28;20377;-74
2022/05/30 00:21:26;;;;;;;8.88;3.65;;;10.00;79.30;;;;;;4996994;28;20033;-74
2022/05/30 00:23:56;;;;;;;8.43;3.85;;;9.90;79.40;;;;;;4996186;28;20061;-75
2022/05/30 00:26:23;;;;;;;8.98;3.58;;;9.90;79.20;;;;;;5004446;28;20041;-73
2022/05/30 00:28:48;;;;;;;7.63;3.70;;;9.80;79.50;;;;;;5001389;28;20038;-74
2022/05/30 00:31:17;;;;;;;8.07;3.90;;;9.80;79.80;;;;;;5002644;28;20045;-73
2022/05/30 00:33:44;;;;;;;8.57;3.88;;;9.70;80.00;;;;;;4998079;28;20046;-74
2022/05/30 00:36:10;;;;;;;9.35;4.25;;;9.70;80.20;;;;;;5003643;28;20466;-75
2022/05/30 00:38:36;;;;;;;8.35;4.43;;;9.70;80.30;;;;;;5000709;28;20042;-75
2022/05/30 00:41:02;;;;;;;9.93;4.43;;;9.60;80.50;;;;;;5000172;28;20046;-74
2022/05/30 00:43:37;;;;;;;8.32;4.22;;;9.50;81.20;;;;;;5004108;28;20096;-74
2022/05/30 00:46:18;;;;;;;7.07;3.85;;;9.50;81.40;;;;;;5001454;28;20045;-75
2022/05/30 00:48:47;;;;;;;7.13;3.75;;;9.50;81.40;;;;;;5001388;28;20099;-74
2022/05/30 00:51:24;;;;;;;7.60;4.03;;;9.50;81.30;;;;;;4997496;28;20041;-75
2022/05/30 00:53:54;;;;;;;8.15;4.35;;;9.50;81.30;;;;;;5000922;28;20034;-75
2022/05/30 00:56:22;;;;;;;10.07;4.20;;;9.40;81.10;;;;;;4995084;28;20144;-74
2022/05/30 00:58:50;;;;;;;8.70;4.35;;;9.40;81.00;;;;;;5004407;28;20029;-74
2022/05/30 01:01:17;;;;;;;7.00;4.15;;;9.40;80.90;;;;;;4997189;28;20121;-74
2022/05/30 01:06:35;;;;;;;8.23;4.18;;;9.40;81.10;;;;;;5002851;28;20411;-75
2022/05/30 01:09:05;;;;;;;9.50;4.05;;;9.40;81.20;;;;;;5007086;28;20037;-76
2022/05/30 01:12:08;;;;;;;9.05;4.00;;;9.40;81.20;;;;;;4997342;28;20038;-74
2022/05/30 01:14:40;;;;;;;8.82;3.90;;;9.40;80.80;;;;;;4957239;28;20035;-73
2022/05/30 01:17:10;;;;;;;6.88;3.95;;;9.30;80.80;;;;;;4982776;28;20034;-75
2022/05/30 01:20:01;;;;;;;9.38;4.50;;;9.30;80.90;;;;;;5015452;28;20216;-74
2022/05/30 01:22:59;;;;;;;8.43;4.28;;;9.20;80.90;;;;;;5000817;28;20030;-75
2022/05/30 01:25:47;;;;;;;7.63;4.03;;;9.20;81.10;;;;;;4987338;28;20149;-75
2022/05/30 01:28:36;;;;;;;7.80;4.53;;;9.10;81.20;;;;;;4994058;28;20030;-75
2022/05/30 01:31:02;;;;;;;8.95;4.70;;;9.10;81.30;;;;;;4995852;28;20592;-76
2022/05/30 01:33:27;;;;;;;9.80;4.43;;;9.10;81.40;;;;;;4999062;28;20525;-74
2022/05/30 01:35:53;;;;;;;7.45;4.22;;;9.00;81.50;;;;;;4999325;28;20521;-74
2022/05/30 01:38:20;;;;;;;7.60;4.22;;;8.90;81.60;;;;;;5005162;28;20038;-74
2022/05/30 01:40:46;;;;;;;8.95;4.40;;;8.90;81.70;;;;;;4996303;28;20095;-74
2022/05/30 01:43:11;;;;;;;9.68;4.93;;;8.90;81.40;;;;;;4996225;28;20030;-75
2022/05/30 01:45:37;;;;;;;8.93;4.45;;;8.90;81.40;;;;;;4994881;28;20062;-74
2022/05/30 01:48:03;;;;;;;8.13;4.43;;;8.80;81.40;;;;;;5002257;28;20049;-75
2022/05/30 01:50:29;;;;;;;9.15;4.45;;;8.70;81.80;;;;;;4997104;28;20041;-74
2022/05/30 01:52:55;;;;;;;9.30;4.82;;;8.70;81.80;;;;;;5002421;28;20044;-72
2022/05/30 01:55:20;;;;;;;8.13;4.47;;;8.70;81.90;;;;;;5000555;28;20102;-75
2022/05/30 01:57:46;;;;;;;9.05;4.18;;;8.70;81.70;;;;;;5005427;28;20040;-73
2022/05/30 02:00:12;;;;;;;8.65;5.00;;;8.60;81.50;;;;;;5000396;28;20484;-74
2022/05/30 02:02:38;;;;;;;7.85;4.65;;;8.60;81.70;;;;;;5003679;28;20608;-74
2022/05/30 02:05:06;;;;;;;8.30;4.35;;;8.60;81.80;;;;;;5001274;28;20044;-73
2022/05/30 02:07:32;;;;;;;10.48;4.85;;;8.60;81.90;;;;;;5007547;28;20029;-74
2022/05/30 02:09:57;;;;;;;8.60;4.63;;;8.50;81.90;;;;;;5003592;28;20037;-74
2022/05/30 02:12:23;;;;;;;9.57;5.25;;;8.50;82.10;;;;;;5001626;28;20041;-74
2022/05/30 02:14:49;;;;;;;10.68;4.90;;;8.50;82.00;;;;;;4996286;28;20057;-76
2022/05/30 02:17:15;;;;;;;9.77;5.35;;;8.40;81.90;;;;;;5000996;28;20145;-76
2022/05/30 02:19:44;;;;;;;8.43;4.90;;;8.30;81.90;;;;;;5006992;28;20108;-74
2022/05/30 02:22:16;;;;;;;9.00;4.53;;;8.30;82.20;;;;;;4992726;28;20034;-75
2022/05/30 02:24:41;;;;;;;8.35;5.03;;;8.20;82.40;;;;;;4997471;28;20046;-74
2022/05/30 02:27:11;;;;;;;10.10;5.28;;;8.20;82.30;;;;;;4997970;28;20093;-74
2022/05/30 02:29:37;;;;;;;7.88;4.90;;;8.20;82.20;;;;;;5002609;28;20025;-74
2022/05/30 02:32:03;;;;;;;11.68;5.07;;;8.10;82.40;;;;;;5008862;28;20367;-75
2022/05/30 02:37:13;;;;;;;9.83;5.40;;;8.10;82.50;;;;;;5002383;28;20096;-74
2022/05/30 02:39:39;;;;;;;10.20;5.40;;;8.10;82.50;;;;;;5002509;28;20369;-72
2022/05/30 02:42:06;;;;;;;10.00;5.57;;;8.10;82.70;;;;;;5004166;28;20041;-76
2022/05/30 02:44:32;;;;;;;10.68;5.15;;;8.10;82.80;;;;;;5013910;28;20405;-73
2022/05/30 02:46:58;;;;;;;11.10;5.28;;;8.10;82.80;;;;;;5003539;28;20116;-75
2022/05/30 02:49:25;;;;;;;8.80;5.18;;;8.10;82.70;;;;;;5010058;28;20109;-74
2022/05/30 02:51:51;;;;;;;10.88;5.30;;;8.10;82.70;;;;;;5005598;28;20034;-74
2022/05/30 02:54:17;;;;;;;9.27;4.97;;;8.10;82.40;;;;;;4997095;28;20334;-75
2022/05/30 02:56:52;;;;;;;10.27;6.30;;;8.10;82.40;;;;;;5003322;28;20068;-75
2022/05/30 02:59:18;;;;;;;9.90;6.20;;;8.10;82.60;;;;;;5031830;28;20033;-74
2022/05/30 03:01:44;;;;;;;9.23;5.60;;;8.10;82.90;;;;;;5004874;28;20037;-75
2022/05/30 03:04:10;;;;;;;11.85;5.75;;;8.10;83.00;;;;;;5003481;28;20036;-74
2022/05/30 03:06:36;;;;;;;8.98;5.40;;;8.10;83.20;;;;;;5001717;28;20034;-74
2022/05/30 03:09:03;;;;;;;11.43;5.78;;;8.10;83.20;;;;;;4998575;28;20080;-74
2022/05/30 03:11:28;;;;;;;9.93;5.43;;;8.20;83.10;;;;;;5000711;28;20101;-74
2022/05/30 03:13:54;;;;;;;11.13;5.57;;;8.20;83.10;;;;;;5001133;28;20026;-73
2022/05/30 03:16:20;;;;;;;10.18;6.10;;;8.30;83.10;;;;;;4998227;28;20064;-75
2022/05/30 03:18:46;;;;;;;9.07;5.40;;;8.30;83.10;;;;;;5002482;28;20069;-74
2022/05/30 03:21:12;;;;;;;9.68;5.10;;;8.40;83.00;;;;;;5008836;28;20029;-74
2022/05/30 03:23:38;;;;;;;10.43;5.80;;;8.40;83.00;;;;;;4998008;28;20046;-76
2022/05/30 03:26:05;;;;;;;12.73;5.90;;;8.50;83.00;;;;;;4994904;28;20042;-74
2022/05/30 03:28:31;;;;;;;11.13;6.35;;;8.50;82.90;;;;;;4990708;28;20030;-72
2022/05/30 03:30:58;;;;;;;10.10;5.70;;;8.50;82.70;;;;;;4992724;28;20045;-75
2022/05/30 03:33:23;;;;;;;11.35;5.85;;;8.60;82.70;;;;;;4990261;28;20041;-75
2022/05/30 03:35:49;;;;;;;11.07;5.50;;;8.60;82.60;;;;;;4992241;28;20484;-74
2022/05/30 03:38:15;;;;;;;10.43;6.03;;;8.60;82.80;;;;;;4986160;28;20117;-71
2022/05/30 03:40:41;;;;;;;8.50;5.30;;;8.60;82.80;;;;;;4994486;28;20070;-72
2022/05/30 03:43:09;;;;;;;9.82;5.68;;;8.60;82.80;;;;;;4992811;28;20062;-74
2022/05/30 03:45:45;;;;;;;11.27;6.22;;;8.60;82.80;;;;;;4994494;28;20092;-74
2022/05/30 03:48:14;;;;;;;8.15;5.57;;;8.60;82.90;;;;;;4984421;28;20037;-74
2022/05/30 03:50:41;;;;;;;11.80;5.90;;;8.60;82.90;;;;;;4995175;28;20038;-74
2022/05/30 03:53:07;;;;;;;8.43;5.80;;;8.60;82.90;;;;;;4991941;28;20055;-73
2022/05/30 03:55:36;;;;;;;9.45;5.85;;;8.60;82.90;;;;;;4999319;28;20117;-74
2022/05/30 03:58:04;;;;;;;10.60;6.40;;;8.60;82.90;;;;;;4990366;28;20034;-73
2022/05/30 04:00:31;;;;;;;8.48;5.72;;;8.60;83.00;;;;;;4993127;28;20044;-74
2022/05/30 04:02:58;;;;;;;12.75;6.50;;;8.60;83.10;;;;;;4998329;28;20076;-75
2022/05/30 04:05:24;;;;;;;14.15;6.60;;;8.70;83.10;;;;;;4994012;28;20050;-74
2022/05/30 04:07:50;;;;;;;9.02;5.18;;;8.80;83.20;;;;;;4987551;28;20361;-73
2022/05/30 04:10:16;;;;;;;9.13;5.85;;;8.90;83.00;;;;;;4988114;28;20384;-73
2022/05/30 04:12:42;;;;;;;11.10;5.68;;;9.00;82.60;;;;;;4992663;28;20125;-74
2022/05/30 04:15:15;;;;;;;11.93;5.93;;;9.10;82.50;;;;;;4987289;28;20022;-72
2022/05/30 04:17:40;;;;;;;11.35;5.18;;;9.10;82.20;;;;;;4994947;28;20053;-75
2022/05/30 04:20:07;;;;;;;12.93;6.15;;;9.30;82.20;;;;;;4990336;28;20509;-74
2022/05/30 04:22:33;;;;;;;10.48;6.45;;;9.40;81.40;;;;;;4989575;28;20037;-74
2022/05/30 04:24:59;;;;;;;9.77;5.70;;;9.50;81.60;;;;;;4986254;28;20046;-76
2022/05/30 04:27:24;;;;;;;8.25;5.20;;;9.60;81.30;;;;;;4987598;28;20378;-74
2022/05/30 04:29:50;;;;;;;10.50;5.47;;;9.70;81.30;;;;;;4988829;28;20117;-75
2022/05/30 04:32:16;;;;;;;9.10;5.45;;;9.80;81.10;;;;;;4989701;28;20456;-74
2022/05/30 04:34:43;;;;;;;10.02;5.90;;;10.00;80.70;;;;;;4988988;28;20564;-74
2022/05/30 04:37:09;;;;;;;10.57;6.25;;;10.10;80.40;;;;;;4989848;28;20045;-74
2022/05/30 04:39:35;;;;;;;9.77;6.13;;;10.20;80.10;;;;;;4984127;28;20034;-74
2022/05/30 04:42:01;;;;;;;9.85;6.05;;;10.20;80.20;;;;;;4989359;28;20508;-76
2022/05/30 04:44:27;;;;;;;8.65;5.40;;;10.30;80.40;;;;;;4990145;28;20121;-72
2022/05/30 04:46:57;;;;;;;9.43;6.15;;;10.40;80.40;;;;;;4997500;28;20737;-75
2022/05/30 04:49:24;;;;;;;9.48;5.68;;;10.40;80.60;;;;;;4993295;28;20053;-75
2022/05/30 04:51:50;;;;;;;10.82;5.35;;;10.40;80.60;;;;;;4995677;28;20734;-74
2022/05/30 04:54:17;;;;;;;10.05;6.03;;;10.50;80.60;;;;;;4995346;28;20045;-74
2022/05/30 04:56:43;;;;;;;11.02;5.70;;;10.40;80.50;;;;;;4994855;28;20041;-72
2022/05/30 04:59:09;;;;;;;8.85;5.05;;;10.60;80.80;;;;;;4988068;28;20046;-75
2022/05/30 05:01:36;;;;;;;10.18;5.25;;;10.60;80.40;;;;;;4989495;28;20165;-73
2022/05/30 05:04:08;;;;;;;8.77;5.25;;;10.70;80.00;;;;;;4994207;28;20597;-74
2022/05/30 05:06:34;;;;;;;9.93;5.78;;;10.80;80.00;;;;;;4988785;28;20046;-74
2022/05/30 05:09:18;;;;;;;10.25;6.10;;;11.00;79.70;;;;;;4986405;28;20034;-74
2022/05/30 05:11:47;;;;;;;11.95;6.47;;;11.10;78.80;;;;;;4987217;28;20046;-73
2022/05/30 05:14:14;;;;;;;9.32;5.78;;;11.20;78.40;;;;;;4990098;28;20061;-75
2022/05/30 05:16:40;;;;;;;9.98;5.88;;;11.60;78.50;;;;;;5019609;28;20030;-75
2022/05/30 05:19:06;;;;;;;14.23;6.20;;;12.90;75.30;;;;;;4990419;28;20049;-76
2022/05/30 05:21:37;;;;;;;10.45;5.57;;;14.30;70.40;;;;;;4990852;28;20145;-75
2022/05/30 05:24:05;;;;;;;10.50;4.75;;;16.00;66.40;;;;;;5003119;28;20062;-74
2022/05/30 05:26:31;;;;;;;8.93;3.80;;;17.40;62.10;;;;;;4997014;28;20030;-75
2022/05/30 05:28:57;;;;;;;8.27;3.92;;;18.60;56.60;;;;;;4994936;28;20044;-76
2022/05/30 05:31:32;;;;;;;8.30;3.60;;;18.70;53.90;;;;;;4987997;28;20045;-72
2022/05/30 05:34:00;;;;;;;9.52;3.70;;;18.30;53.70;;;;;;4993130;28;20039;-71
2022/05/30 05:36:31;;;;;;;10.95;4.05;;;17.30;56.40;;;;;;4991460;28;20527;-73
2022/05/30 05:38:57;;;;;;;9.10;4.00;;;16.40;59.10;;;;;;4997689;28;20228;-74
2022/05/30 05:41:23;;;;;;;8.45;3.60;;;15.40;61.70;;;;;;4992446;28;20439;-73
2022/05/30 05:43:49;;;;;;;14.35;4.72;;;14.60;64.20;;;;;;4998250;28;20069;-73
2022/05/30 05:46:20;;;;;;;14.70;4.80;;;14.10;65.80;;;;;;4997720;28;20064;-72
2022/05/30 05:48:46;;;;;;;11.95;4.60;;;13.60;67.50;;;;;;5000956;28;20040;-72
2022/05/30 05:51:13;;;;;;;11.27;4.82;;;13.10;69.50;;;;;;5023094;28;20048;-75
2022/05/30 05:53:42;;;;;;;10.20;4.70;;;12.80;70.30;;;;;;4995821;28;20033;-71
2022/05/30 05:56:27;;;;;;;9.05;4.22;;;12.60;71.20;;;;;;5002033;28;20089;-72
2022/05/30 05:58:53;;;;;;;11.55;4.72;;;12.40;72.20;;;;;;4994803;28;20570;-73
2022/05/30 06:01:24;;;;;;;10.65;4.45;;;12.20;72.70;;;;;;5012513;28;20035;-73
2022/05/30 06:03:54;;;;;;;13.05;4.55;;;12.00;72.90;;;;;;5009398;28;20034;-73
2022/05/30 06:06:21;;;;;;;12.05;4.20;;;11.90;72.50;;;;;;4999231;28;20404;-72
2022/05/30 06:08:46;;;;;;;17.02;6.15;;;11.80;73.30;;;;;;4997940;28;20072;-73
2022/05/30 06:11:12;;;;;;;14.48;5.25;;;11.70;74.00;;;;;;4995154;28;20042;-71
2022/05/30 06:13:41;;;;;;;12.57;4.65;;;11.60;74.90;;;;;;4994291;28;20060;-73
2022/05/30 06:16:09;;;;;;;11.00;4.20;;;11.60;74.80;;;;;;4995327;28;20041;-73
2022/05/30 06:18:35;;;;;;;8.90;4.43;;;11.80;74.60;;;;;;4992588;28;20103;-73
2022/05/30 06:21:02;;;;;;;14.13;5.15;;;12.00;74.40;;;;;;4998746;28;20498;-72
2022/05/30 06:23:28;;;;;;;12.98;4.95;;;12.20;73.70;;;;;;4993262;28;20058;-73
2022/05/30 06:25:54;;;;;;;12.70;5.65;;;12.40;73.40;;;;;;5003435;28;20030;-72
2022/05/30 06:28:20;;;;;;;14.20;5.45;;;12.60;73.20;;;;;;5002476;28;20544;-71
2022/05/30 06:30:45;;;;;;;18.05;6.13;;;12.60;73.60;;;;;;5000412;28;20033;-74
2022/05/30 06:33:11;;;;;;;13.48;5.90;;;12.60;73.80;;;;;;5001680;28;20561;-74
2022/05/30 06:35:41;;;;;;;10.43;5.68;;;12.60;74.10;;;;;;4998149;28;20088;-73
2022/05/30 06:38:09;;;;;;;14.68;5.85;;;12.60;73.70;;;;;;4997009;28;20068;-73
2022/05/30 06:40:35;;;;;;;16.60;6.90;;;12.60;74.80;;;;;;4995218;28;20037;-70
2022/05/30 06:43:01;;;;;;;12.60;5.55;;;12.60;74.90;;;;;;5004154;28;20563;-75
2022/05/30 06:45:26;;;;;;;14.75;5.45;;;12.60;74.60;;;;;;4992417;28;20042;-71
2022/05/30 06:47:52;;;;;;;16.08;5.35;;;12.60;73.30;;;;;;4988208;28;20038;-74
2022/05/30 06:50:18;;;;;;;10.15;4.72;;;12.60;72.40;;;;;;4989705;28;20046;-73
2022/05/30 06:52:43;;;;;;;12.07;4.30;;;12.60;71.80;;;;;;4999961;28;20410;-72
2022/05/30 06:55:10;;;;;;;10.75;4.50;;;12.60;71.10;;;;;;4991274;28;20047;-72
2022/05/30 07:00:20;;;;;;;11.82;4.90;;;12.80;70.60;;;;;;4990118;28;20049;-74
2022/05/30 07:02:47;;;;;;;13.25;6.20;;;13.00;71.60;;;;;;4992939;28;20118;-74
2022/05/30 07:05:13;;;;;;;12.57;6.00;;;13.10;72.10;;;;;;5002709;28;20072;-72
2022/05/30 07:07:40;;;;;;;10.75;5.38;;;13.10;72.40;;;;;;5000305;28;20042;-73
2022/05/30 07:10:06;;;;;;;12.10;4.93;;;13.10;72.40;;;;;;4993765;28;20030;-73
2022/05/30 07:12:32;;;;;;;10.95;4.95;;;13.30;71.80;;;;;;5005740;28;20049;-72
2022/05/30 07:14:57;;;;;;;10.30;5.15;;;13.50;71.70;;;;;;4992746;28;20468;-74
2022/05/30 07:17:25;;;;;;;9.88;4.72;;;13.80;70.50;;;;;;4999037;28;20393;-72
2022/05/30 07:19:51;;;;;;;10.48;4.40;;;14.00;69.30;;;;;;4996308;28;20046;-70
2022/05/30 07:22:17;;;;;;;11.05;3.90;;;14.10;65.90;;;;;;4999468;28;20257;-78
2022/05/30 07:24:43;;;;;;;9.57;4.20;;;14.10;63.90;;;;;;4995989;28;20497;-74
2022/05/30 07:27:09;;;;;;;8.57;3.97;;;14.20;64.20;;;;;;4998734;28;20041;-74
2022/05/30 07:29:35;;;;;;;9.80;4.30;;;14.60;63.50;;;;;;4992920;28;20041;-73
2022/05/30 07:32:02;;;;;;;9.27;3.75;;;14.70;61.90;;;;;;5000021;28;20046;-73
2022/05/30 07:34:28;;;;;;;8.82;3.72;;;15.00;62.40;;;;;;4998416;28;20038;-73
2022/05/30 07:36:54;;;;;;;9.43;3.90;;;15.10;61.40;;;;;;4999824;28;20069;-73
2022/05/30 07:39:20;;;;;;;10.98;4.13;;;15.20;60.00;;;;;;4996411;28;20068;-71
2022/05/30 07:41:45;;;;;;;8.63;3.03;;;15.10;58.90;;;;;;5000532;28;20560;-73
2022/05/30 07:44:11;;;;;;;10.85;3.40;;;14.80;59.80;;;;;;5000516;28;20056;-72
2022/05/30 07:46:39;;;;;;;9.30;2.45;;;15.10;59.10;;;;;;5000482;28;20069;-78
2022/05/30 07:49:05;;;;;;;6.22;2.40;;;15.20;57.20;;;;;;5001863;28;20384;-76
2022/05/30 07:51:31;;;;;;;8.30;2.70;;;15.20;57.00;;;;;;5000527;28;20380;-75
2022/05/30 07:53:58;;;;;;;7.10;2.00;;;15.30;56.50;;;;;;4995591;28;20034;-78
2022/05/30 07:56:23;;;;;;;5.47;1.90;;;15.00;55.50;;;;;;5001610;28;20474;-73
2022/05/30 07:58:49;;;;;;;7.18;2.88;;;14.90;56.70;;;;;;4990995;28;20041;-76
2022/05/30 08:01:19;;;;;;;7.40;2.92;;;14.80;56.60;;;;;;4992851;28;20504;-72
2022/05/30 08:03:45;;;;;;;8.50;2.45;;;14.80;56.60;;;;;;4998659;28;20037;-71
2022/05/30 08:06:14;;;;;;;8.85;2.90;;;14.70;56.40;;;;;;4997840;28;20042;-73
2022/05/30 08:08:41;;;;;;;13.90;3.30;;;14.70;56.80;;;;;;5000647;28;20037;-76
2022/05/30 08:11:06;;;;;;;6.68;2.53;;;14.70;57.30;;;;;;5000254;28;20034;-74
2022/05/30 08:13:32;;;;;;;9.73;3.08;;;14.80;56.50;;;;;;5009719;28;20089;-73
2022/05/30 08:15:58;;;;;;;8.68;3.03;;;15.00;56.80;;;;;;5004813;28;20092;-71
2022/05/30 08:18:24;;;;;;;8.95;3.17;;;15.20;56.70;;;;;;4999634;28;20038;-74
2022/05/30 08:20:50;;;;;;;8.88;2.88;;;15.00;56.50;;;;;;4995796;28;20030;-72
2022/05/30 08:23:17;;;;;;;6.95;2.67;;;15.10;56.40;;;;;;4992884;28;20052;-74
2022/05/30 08:25:43;;;;;;;8.20;2.95;;;15.40;55.70;;;;;;4997791;28;20464;-74
2022/05/30 08:28:09;;;;;;;9.45;3.58;;;15.60;54.80;;;;;;4994411;28;20057;-73
2022/05/30 08:30:35;;;;;;;9.93;3.28;;;15.90;53.60;;;;;;4996709;28;20026;-71
2022/05/30 08:33:00;;;;;;;9.02;3.30;;;16.10;53.80;;;;;;4994880;28;20046;-72
2022/05/30 08:35:27;;;;;;;6.32;2.90;;;16.40;52.30;;;;;;5001435;28;20112;-74
2022/05/30 08:37:57;;;;;;;14.45;3.42;;;16.30;53.00;;;;;;4993051;28;20125;-74
2022/05/30 08:43:32;;;;;;;7.10;2.72;;;16.10;52.40;;;;;;4991743;28;20037;-74
2022/05/30 08:46:08;;;;;;;8.13;3.17;;;16.10;51.60;;;;;;4994037;28;20033;-73
2022/05/30 08:48:45;;;;;;;11.85;3.63;;;16.00;52.20;;;;;;5000626;28;20046;-72
2022/05/30 08:51:14;;;;;;;7.70;2.75;;;16.10;53.40;;;;;;4996452;28;20134;-73
2022/05/30 08:54:14;;;;;;;7.20;3.13;;;15.50;52.70;;;;;;4995785;28;20050;-72
2022/05/30 08:56:43;;;;;;;13.38;3.15;;;15.30;53.40;;;;;;5014522;28;20049;-74
2022/05/30 08:59:30;;;;;;;6.75;2.85;;;15.10;54.20;;;;;;4996331;28;20049;-72
2022/05/30 09:02:21;;;;;;;7.78;2.30;;;14.90;55.70;;;;;;5010683;28;20064;-73
2022/05/30 09:04:52;;;;;;;8.95;3.00;;;14.80;54.00;;;;;;4993156;28;20544;-70
2022/05/30 09:07:26;;;;;;;10.05;3.00;;;14.60;56.50;;;;;;5003434;28;20128;-72
2022/05/30 09:09:52;;;;;;;7.65;2.83;;;14.40;59.20;;;;;;5013825;28;20030;-71
2022/05/30 09:12:40;;;;;;;9.32;3.35;;;14.10;60.60;;;;;;5003553;28;20651;-72
2022/05/30 09:15:16;;;;;;;10.02;4.20;;;13.90;60.90;;;;;;5004171;28;20075;-73
2022/05/30 09:17:44;;;;;;;10.43;3.30;;;13.90;61.30;;;;;;5005999;28;20050;-71
2022/05/30 09:20:15;;;;;;;9.50;3.17;;;13.80;61.00;;;;;;4991091;28;20046;-70
2022/05/30 09:22:42;;;;;;;9.50;3.10;;;13.80;61.40;;;;;;5008757;28;20033;-71
2022/05/30 09:28:19;;;;;;;7.22;2.63;;;14.00;60.30;;;;;;5002475;28;20072;-74
2022/05/30 09:31:16;;;;;;;11.30;3.40;;;14.10;60.10;;;;;;5003236;28;20052;-71
2022/05/30 09:33:47;;;;;;;8.75;2.88;;;14.30;59.00;;;;;;5005082;28;20054;-71
2022/05/30 09:36:29;;;;;;;9.95;3.67;;;14.50;58.50;;;;;;5004204;28;20037;-71
2022/05/30 09:39:16;;;;;;;9.02;2.83;;;14.60;58.10;;;;;;5002934;28;20050;-70
2022/05/30 09:41:43;;;;;;;5.85;2.75;;;14.90;57.60;;;;;;5003066;28;20061;-73
2022/05/30 09:44:24;;;;;;;9.68;2.70;;;15.00;57.40;;;;;;5003351;28;20050;-71
2022/05/30 09:47:05;;;;;;;6.60;2.88;;;15.10;56.30;;;;;;5004516;28;20842;-71
2022/05/30 09:49:42;;;;;;;8.38;2.90;;;15.30;56.30;;;;;;5003762;28;20034;-77
2022/05/30 09:52:32;;;;;;;5.93;3.00;;;15.40;55.70;;;;;;5006585;28;20057;-73
2022/05/30 09:54:59;;;;;;;10.98;3.08;;;15.30;54.30;;;;;;4999216;28;20444;-74
2022/05/30 09:57:42;;;;;;;8.00;3.50;;;15.80;54.50;;;;;;5030231;28;20116;-73
2022/05/30 10:00:20;;;;;;;11.32;3.42;;;16.60;52.10;;;;;;5010513;28;20091;-77
2022/05/30 10:03:17;;;;;;;7.60;2.67;;;16.70;51.20;;;;;;4998127;28;20050;-78
2022/05/30 10:05:43;;;;;;;7.85;2.92;;;16.80;50.10;;;;;;4994275;28;20091;-73
2022/05/30 10:08:30;;;;;;;6.88;2.78;;;17.40;48.70;;;;;;4996947;28;20038;-71
2022/05/30 10:10:59;;;;;;;6.80;2.97;;;18.10;47.90;;;;;;5001227;28;20038;-75
2022/05/30 10:13:40;;;;;;;7.78;2.60;;;18.50;47.10;;;;;;5000832;28;20050;-73
2022/05/30 10:16:12;;;;;;;10.20;3.28;;;19.10;45.00;;;;;;5001833;28;20555;-72
2022/05/30 10:19:00;;;;;;;8.65;2.80;;;18.80;45.50;;;;;;5002123;28;20061;-76
2022/05/30 10:28:16;;;;;;;7.50;2.88;;;18.50;47.20;;;;;;4998517;28;20456;-72
2022/05/30 10:30:52;;;;;;;7.20;3.25;;;18.70;44.70;;;;;;5001099;28;20061;-72
2022/05/30 10:33:30;;;;;;;8.88;2.72;;;18.50;46.30;;;;;;5004460;28;20077;-73
2022/05/30 10:36:09;;;;;;;6.60;2.65;;;18.60;44.80;;;;;;5005242;28;20372;-74
2022/05/30 10:38:59;;;;;;;5.70;2.38;;;18.80;47.30;;;;;;4998715;28;20556;-72
2022/05/30 10:41:25;;;;;;;5.75;2.42;;;19.00;45.10;;;;;;5002485;28;20046;-72
2022/05/30 10:44:06;;;;;;;5.35;2.25;;;18.70;44.70;;;;;;5001420;28;20038;-71
2022/05/30 10:46:42;;;;;;;8.15;2.60;;;18.30;45.50;;;;;;5000496;28;20640;-73
2022/05/30 10:49:13;;;;;;;8.48;2.72;;;17.80;47.60;;;;;;4994617;28;20069;-72
2022/05/30 10:51:54;;;;;;;7.47;2.88;;;17.60;47.30;;;;;;5008717;28;20053;-69
2022/05/30 10:54:32;;;;;;;8.23;3.40;;;17.60;49.40;;;;;;5000517;28;20038;-73
2022/05/30 10:57:17;;;;;;;6.07;3.25;;;17.50;48.30;;;;;;5001683;28;20490;-74
2022/05/30 10:59:47;;;;;;;8.65;3.65;;;17.40;49.20;;;;;;5006703;28;20034;-73
2022/05/30 11:02:27;;;;;;;7.57;3.53;;;17.40;49.60;;;;;;5004534;28;20497;-74
2022/05/30 11:05:17;;;;;;;9.00;3.45;;;17.50;49.50;;;;;;5001782;28;20179;-74
2022/05/30 11:08:09;;;;;;;8.13;3.80;;;17.60;50.70;;;;;;4998192;28;20092;-73
2022/05/30 11:10:56;;;;;;;9.15;3.65;;;17.60;48.70;;;;;;5000592;28;20555;-73
2022/05/30 11:13:47;;;;;;;7.03;3.38;;;17.80;48.30;;;;;;5000295;28;20047;-73
2022/05/30 11:16:35;;;;;;;10.15;3.40;;;17.80;47.80;;;;;;5001565;28;20478;-72
2022/05/30 11:19:09;;;;;;;9.23;3.45;;;17.80;48.30;;;;;;4998438;28;20062;-76
2022/05/30 11:21:37;;;;;;;9.50;3.90;;;17.80;48.70;;;;;;5004770;28;20128;-75
2022/05/30 11:24:05;;;;;;;7.25;3.25;;;17.70;47.80;;;;;;4998053;28;20073;-74
2022/05/30 11:26:49;;;;;;;9.60;3.40;;;17.60;48.10;;;;;;4998031;28;20037;-75
2022/05/30 11:29:52;;;;;;;8.65;3.67;;;17.60;47.80;;;;;;4995965;28;20042;-72
2022/05/30 11:32:54;;;;;;;6.78;3.40;;;17.40;47.90;;;;;;5000603;28;20054;-76
2022/05/30 11:35:53;;;;;;;7.55;3.53;;;17.50;49.50;;;;;;4995863;28;20132;-73
2022/05/30 11:38:52;;;;;;;9.57;3.65;;;16.90;48.70;;;;;;5000735;28;20365;-72
2022/05/30 11:41:51;;;;;;;7.65;3.30;;;16.60;50.50;;;;;;5000760;28;20049;-72
2022/05/30 11:44:49;;;;;;;7.93;3.38;;;16.40;51.60;;;;;;4994816;28;20038;-72
2022/05/30 11:47:52;;;;;;;10.95;4.20;;;16.30;51.10;;;;;;4994735;28;20053;-73
2022/05/30 11:50:29;;;;;;;8.57;3.97;;;16.10;51.60;;;;;;4996832;28;20070;-76
2022/05/30 11:53:14;;;;;;;9.07;3.17;;;16.10;52.80;;;;;;5002257;28;20049;-74
2022/05/30 11:56:06;;;;;;;8.25;3.67;;;16.10;52.90;;;;;;5001616;28;20088;-72
2022/05/30 11:59:16;;;;;;;6.68;3.17;;;16.20;52.10;;;;;;5001980;28;20038;-75
2022/05/30 12:01:43;;;;;;;9.40;3.92;;;16.20;51.30;;;;;;5030695;28;20046;-73
2022/05/30 12:04:33;;;;;;;10.63;4.07;;;16.30;52.00;;;;;;5001836;28;20042;-71
2022/05/30 12:07:18;;;;;;;7.82;3.38;;;16.20;51.60;;;;;;5001868;28;20125;-73
2022/05/30 12:10:11;;;;;;;9.73;3.53;;;16.20;51.90;;;;;;4999867;28;20048;-70
2022/05/30 12:12:45;;;;;;;7.57;3.15;;;16.20;51.30;;;;;;5007623;28;20041;-73
2022/05/30 12:15:41;;;;;;;9.48;3.83;;;16.20;51.50;;;;;;4996897;28;20046;-73
2022/05/30 12:24:21;;;;;;;9.65;3.30;;;15.70;52.20;;;;;;4996023;28;20089;-72
2022/05/30 12:26:53;;;;;;;9.63;3.58;;;15.60;54.50;;;;;;4998927;28;20043;-72
2022/05/30 12:29:39;;;;;;;8.82;3.42;;;15.40;55.80;;;;;;4995171;28;20034;-72
2022/05/30 12:32:23;;;;;;;8.57;3.20;;;15.10;56.80;;;;;;4995020;28;20564;-74
2022/05/30 12:35:01;;;;;;;9.10;3.08;;;15.00;57.70;;;;;;5004985;28;20403;-73
2022/05/30 12:37:44;;;;;;;12.57;2.97;;;14.90;57.90;;;;;;5005873;28;20037;-76
2022/05/30 12:40:34;;;;;;;9.40;3.22;;;14.90;58.30;;;;;;4999105;28;20405;-74
2022/05/30 12:43:27;;;;;;;10.25;3.30;;;14.90;58.40;;;;;;4998610;28;20033;-77
2022/05/30 12:45:56;;;;;;;11.20;3.40;;;14.70;58.40;;;;;;4997611;28;20046;-74
2022/05/30 12:48:50;;;;;;;9.32;3.42;;;14.60;58.80;;;;;;4992797;28;20042;-73
2022/05/30 12:51:37;;;;;;;7.85;3.08;;;14.60;59.00;;;;;;4998934;28;20041;-73
2022/05/30 12:54:03;;;;;;;8.05;3.20;;;14.70;58.70;;;;;;5000016;28;20084;-75
2022/05/30 12:56:40;;;;;;;10.05;3.42;;;14.70;59.10;;;;;;5004545;28;20046;-74
2022/05/30 12:59:28;;;;;;;8.48;3.47;;;14.70;59.40;;;;;;5003970;28;20049;-74
2022/05/30 13:01:56;;;;;;;10.80;3.05;;;14.70;60.00;;;;;;5001160;28;20041;-75
2022/05/30 13:04:31;;;;;;;12.13;3.03;;;14.70;60.20;;;;;;4995860;28;20042;-72
2022/05/30 13:06:57;;;;;;;7.63;2.72;;;14.60;60.20;;;;;;4998714;28;20330;-79
2022/05/30 13:09:28;;;;;;;5.93;2.90;;;14.60;60.10;;;;;;4994493;28;20144;-71
2022/05/30 13:12:15;;;;;;;11.68;3.08;;;14.60;59.30;;;;;;4997590;28;20050;-74
2022/05/30 13:14:50;;;;;;;8.68;3.33;;;14.60;59.10;;;;;;4995956;28;20115;-70
2022/05/30 13:17:40;;;;;;;6.07;3.15;;;14.60;58.70;;;;;;4990122;28;20038;-73
2022/05/30 13:20:14;;;;;;;8.15;3.40;;;14.60;58.70;;;;;;4998842;28;20050;-74
2022/05/30 13:22:54;;;;;;;8.65;3.20;;;14.70;58.60;;;;;;4993448;28;20038;-72
2022/05/30 13:25:41;;;;;;;9.40;3.50;;;14.70;58.80;;;;;;4990083;28;20046;-70
2022/05/30 13:28:23;;;;;;;6.60;3.30;;;14.90;58.30;;;;;;4995220;28;20033;-73
2022/05/30 13:30:51;;;;;;;9.57;3.30;;;15.00;58.30;;;;;;4995269;28;20417;-72
2022/05/30 13:33:25;;;;;;;6.38;3.20;;;15.10;57.90;;;;;;5003221;28;20658;-70
2022/05/30 13:35:58;;;;;;;9.20;3.75;;;15.20;57.20;;;;;;4996565;28;20038;-72
2022/05/30 13:38:42;;;;;;;8.77;3.53;;;15.50;57.00;;;;;;4998033;28;20032;-76